sensor_id;sensor_type;location;lat;lon;timestamp;temperature;humidity
33368;DHT22;19724;51.114;13.906;2023-02-08T00:00:07;-5.80;99.90
33368;DHT22;19724;51.114;13.906;2023-02-08T00:02:33;-5.80;99.90
33368;DHT22;19724;51.114;13.906;2023-02-08T00:04:59;-5.80;99.90
33368;DHT22;19724;51.114;13.906;2023-02-08T00:07:24;-5.80;99.90
33368;DHT22;19724;51.114;13.906;2023-02-08T00:09:50;-5.80;99.90
33368;DHT22;19724;51.114;13.906;2023-02-08T00:12:15;-5.80;99.90
33368;DHT22;19724;51.114;13.906;2023-02-08T00:14:40;-5.80;99.90
33368;DHT22;19724;51.114;13.906;2023-02-08T00:17:06;-5.80;99.90
33368;DHT22;19724;51.114;13.906;2023-02-08T00:19:31;-5.80;99.90
33368;DHT22;19724;51.114;13.906;2023-02-08T00:21:57;-5.80;99.90
33368;DHT22;19724;51.114;13.906;2023-02-08T00:24:22;-5.80;99.90
33368;DHT22;19724;51.114;13.906;2023-02-08T00:26:48;-5.80;99.90
33368;DHT22;19724;51.114;13.906;2023-02-08T00:29:13;-5.80;99.90
33368;DHT22;19724;51.114;13.906;2023-02-08T00:31:39;-5.70;99.90
33368;DHT22;19724;51.114;13.906;2023-02-08T00:34:04;-5.80;99.90
33368;DHT22;19724;51.114;13.906;2023-02-08T00:36:30;-5.90;99.90
33368;DHT22;19724;51.114;13.906;2023-02-08T00:38:55;-5.80;99.90
33368;DHT22;19724;51.114;13.906;2023-02-08T00:41:21;-5.90;99.90
33368;DHT22;19724;51.114;13.906;2023-02-08T00:43:46;-5.80;99.90
33368;DHT22;19724;51.114;13.906;2023-02-08T00:46:11;-5.90;99.90
33368;DHT22;19724;51.114;13.906;2023-02-08T00:48:37;-6.00;99.90
33368;DHT22;19724;51.114;13.906;2023-02-08T00:51:11;-5.90;99.90
33368;DHT22;19724;51.114;13.906;2023-02-08T00:53:41;-6.10;99.90
33368;DHT22;19724;51.114;13.906;2023-02-08T00:56:08;-6.20;99.90
33368;DHT22;19724;51.114;13.906;2023-02-08T00:58:34;-6.20;99.90
33368;DHT22;19724;51.114;13.906;2023-02-08T01:01:00;-6.20;99.90
33368;DHT22;19724;51.114;13.906;2023-02-08T01:03:26;-6.20;99.90
33368;DHT22;19724;51.114;13.906;2023-02-08T01:05:52;-6.30;99.90
33368;DHT22;19724;51.114;13.906;2023-02-08T01:08:17;-6.20;99.90
33368;DHT22;19724;51.114;13.906;2023-02-08T01:10:44;-6.30;99.90
33368;DHT22;19724;51.114;13.906;2023-02-08T01:13:10;-6.30;99.90
33368;DHT22;19724;51.114;13.906;2023-02-08T01:15:36;-6.30;99.90
33368;DHT22;19724;51.114;13.906;2023-02-08T01:18:02;-6.20;99.90
33368;DHT22;19724;51.114;13.906;2023-02-08T01:20:28;-6.30;99.90
33368;DHT22;19724;51.114;13.906;2023-02-08T01:22:54;-6.30;99.90
33368;DHT22;19724;51.114;13.906;2023-02-08T01:25:20;-6.20;99.90
33368;DHT22;19724;51.114;13.906;2023-02-08T01:27:45;-6.20;99.90
33368;DHT22;19724;51.114;13.906;2023-02-08T01:30:11;-6.30;99.90
33368;DHT22;19724;51.114;13.906;2023-02-08T01:32:37;-6.20;99.90
33368;DHT22;19724;51.114;13.906;2023-02-08T01:35:03;-6.20;99.90
33368;DHT22;19724;51.114;13.906;2023-02-08T01:37:28;-6.30;99.90
33368;DHT22;19724;51.114;13.906;2023-02-08T01:39:54;-6.30;99.90
33368;DHT22;19724;51.114;13.906;2023-02-08T01:42:19;-6.20;99.90
33368;DHT22;19724;51.114;13.906;2023-02-08T01:48:11;-6.30;99.90
33368;DHT22;19724;51.114;13.906;2023-02-08T01:50:54;-6.30;99.90
33368;DHT22;19724;51.114;13.906;2023-02-08T01:53:24;-6.40;99.90
33368;DHT22;19724;51.114;13.906;2023-02-08T01:55:54;-6.50;99.90
33368;DHT22;19724;51.114;13.906;2023-02-08T01:58:22;-6.50;99.90
33368;DHT22;19724;51.114;13.906;2023-02-08T02:00:49;-6.50;99.90
33368;DHT22;19724;51.114;13.906;2023-02-08T02:03:15;-6.50;99.90
33368;DHT22;19724;51.114;13.906;2023-02-08T02:05:46;-6.60;99.90
33368;DHT22;19724;51.114;13.906;2023-02-08T02:08:12;-6.50;99.90
33368;DHT22;19724;51.114;13.906;2023-02-08T02:10:39;-6.40;99.90
33368;DHT22;19724;51.114;13.906;2023-02-08T02:13:16;-6.40;99.90
33368;DHT22;19724;51.114;13.906;2023-02-08T02:15:43;-6.50;99.90
33368;DHT22;19724;51.114;13.906;2023-02-08T02:18:09;-6.50;99.90
33368;DHT22;19724;51.114;13.906;2023-02-08T02:23:50;-6.60;99.90
33368;DHT22;19724;51.114;13.906;2023-02-08T02:34:42;-6.50;99.90
33368;DHT22;19724;51.114;13.906;2023-02-08T02:40:19;-6.50;99.90
33368;DHT22;19724;51.114;13.906;2023-02-08T02:43:07;-6.50;99.90
33368;DHT22;19724;51.114;13.906;2023-02-08T02:48:29;-6.70;99.90
33368;DHT22;19724;51.114;13.906;2023-02-08T02:51:13;-6.60;99.90
33368;DHT22;19724;51.114;13.906;2023-02-08T02:53:52;-6.60;99.90
33368;DHT22;19724;51.114;13.906;2023-02-08T02:56:36;-6.60;99.90
33368;DHT22;19724;51.114;13.906;2023-02-08T02:59:05;-6.60;99.90
33368;DHT22;19724;51.114;13.906;2023-02-08T03:01:32;-6.80;99.90
33368;DHT22;19724;51.114;13.906;2023-02-08T03:03:57;-6.70;99.90
33368;DHT22;19724;51.114;13.906;2023-02-08T03:06:54;-6.70;99.90
33368;DHT22;19724;51.114;13.906;2023-02-08T03:18:35;-6.70;99.90
33368;DHT22;19724;51.114;13.906;2023-02-08T03:21:17;-6.70;99.90
33368;DHT22;19724;51.114;13.906;2023-02-08T03:26:24;-6.70;99.90
33368;DHT22;19724;51.114;13.906;2023-02-08T03:29:43;-6.80;99.90
33368;DHT22;19724;51.114;13.906;2023-02-08T03:32:10;-6.70;99.90
33368;DHT22;19724;51.114;13.906;2023-02-08T03:34:47;-6.80;99.90
33368;DHT22;19724;51.114;13.906;2023-02-08T03:37:28;-6.80;99.90
33368;DHT22;19724;51.114;13.906;2023-02-08T03:40:00;-6.80;99.90
33368;DHT22;19724;51.114;13.906;2023-02-08T03:42:27;-6.80;99.90
33368;DHT22;19724;51.114;13.906;2023-02-08T03:45:01;-6.70;99.90
33368;DHT22;19724;51.114;13.906;2023-02-08T03:47:34;-6.90;99.90
33368;DHT22;19724;51.114;13.906;2023-02-08T03:50:05;-6.90;99.90
33368;DHT22;19724;51.114;13.906;2023-02-08T03:52:33;-6.90;99.90
33368;DHT22;19724;51.114;13.906;2023-02-08T03:55:06;-6.90;99.90
33368;DHT22;19724;51.114;13.906;2023-02-08T03:57:37;-6.80;99.90
33368;DHT22;19724;51.114;13.906;2023-02-08T04:00:09;-6.80;99.90
33368;DHT22;19724;51.114;13.906;2023-02-08T04:02:39;-6.80;99.90
33368;DHT22;19724;51.114;13.906;2023-02-08T04:05:06;-6.80;99.90
33368;DHT22;19724;51.114;13.906;2023-02-08T04:07:32;-6.70;99.90
33368;DHT22;19724;51.114;13.906;2023-02-08T04:09:57;-6.70;99.90
33368;DHT22;19724;51.114;13.906;2023-02-08T04:12:23;-6.60;99.90
33368;DHT22;19724;51.114;13.906;2023-02-08T04:14:48;-6.60;99.90
33368;DHT22;19724;51.114;13.906;2023-02-08T04:17:14;-6.50;99.90
33368;DHT22;19724;51.114;13.906;2023-02-08T04:19:39;-6.50;99.90
33368;DHT22;19724;51.114;13.906;2023-02-08T04:22:05;-6.40;99.90
33368;DHT22;19724;51.114;13.906;2023-02-08T04:24:30;-6.50;99.90
33368;DHT22;19724;51.114;13.906;2023-02-08T04:26:56;-6.60;99.90
33368;DHT22;19724;51.114;13.906;2023-02-08T04:29:21;-6.50;99.90
33368;DHT22;19724;51.114;13.906;2023-02-08T04:31:47;-6.50;99.90
33368;DHT22;19724;51.114;13.906;2023-02-08T04:34:12;-6.50;99.90
33368;DHT22;19724;51.114;13.906;2023-02-08T04:36:38;-6.50;99.90
33368;DHT22;19724;51.114;13.906;2023-02-08T04:39:04;-6.50;99.90
33368;DHT22;19724;51.114;13.906;2023-02-08T04:41:29;-6.60;99.90
33368;DHT22;19724;51.114;13.906;2023-02-08T04:43:55;-6.60;99.90
33368;DHT22;19724;51.114;13.906;2023-02-08T04:46:20;-6.60;99.90
33368;DHT22;19724;51.114;13.906;2023-02-08T04:48:46;-6.50;99.90
33368;DHT22;19724;51.114;13.906;2023-02-08T04:51:11;-6.60;99.90
33368;DHT22;19724;51.114;13.906;2023-02-08T04:53:37;-6.50;99.90
33368;DHT22;19724;51.114;13.906;2023-02-08T04:56:02;-6.60;99.90
33368;DHT22;19724;51.114;13.906;2023-02-08T04:58:28;-6.60;99.90
33368;DHT22;19724;51.114;13.906;2023-02-08T05:00:54;-6.60;99.90
33368;DHT22;19724;51.114;13.906;2023-02-08T05:03:19;-6.60;99.90
33368;DHT22;19724;51.114;13.906;2023-02-08T05:05:45;-6.50;99.90
33368;DHT22;19724;51.114;13.906;2023-02-08T05:08:10;-6.50;99.90
33368;DHT22;19724;51.114;13.906;2023-02-08T05:10:36;-6.50;99.90
33368;DHT22;19724;51.114;13.906;2023-02-08T05:13:01;-6.50;99.90
33368;DHT22;19724;51.114;13.906;2023-02-08T05:15:27;-6.50;99.90
33368;DHT22;19724;51.114;13.906;2023-02-08T05:17:52;-6.30;99.90
33368;DHT22;19724;51.114;13.906;2023-02-08T05:20:18;-6.20;99.90
33368;DHT22;19724;51.114;13.906;2023-02-08T05:22:43;-6.10;99.90
33368;DHT22;19724;51.114;13.906;2023-02-08T05:25:09;-6.10;99.90
33368;DHT22;19724;51.114;13.906;2023-02-08T05:27:35;-6.00;99.90
33368;DHT22;19724;51.114;13.906;2023-02-08T05:30:01;-6.00;99.90
33368;DHT22;19724;51.114;13.906;2023-02-08T05:32:26;-5.90;99.90
33368;DHT22;19724;51.114;13.906;2023-02-08T05:34:52;-5.80;99.90
33368;DHT22;19724;51.114;13.906;2023-02-08T05:37:18;-5.80;99.90
33368;DHT22;19724;51.114;13.906;2023-02-08T05:39:43;-5.80;99.90
33368;DHT22;19724;51.114;13.906;2023-02-08T05:42:09;-5.70;99.90
33368;DHT22;19724;51.114;13.906;2023-02-08T05:44:34;-5.80;99.90
33368;DHT22;19724;51.114;13.906;2023-02-08T05:46:59;-5.70;99.90
33368;DHT22;19724;51.114;13.906;2023-02-08T05:49:26;-5.70;99.90
33368;DHT22;19724;51.114;13.906;2023-02-08T05:51:51;-5.60;99.90
33368;DHT22;19724;51.114;13.906;2023-02-08T05:54:17;-5.60;99.90
33368;DHT22;19724;51.114;13.906;2023-02-08T05:56:42;-5.60;99.90
33368;DHT22;19724;51.114;13.906;2023-02-08T05:59:08;-5.50;99.90
33368;DHT22;19724;51.114;13.906;2023-02-08T06:01:35;-5.60;99.90
33368;DHT22;19724;51.114;13.906;2023-02-08T06:04:00;-5.60;99.90
33368;DHT22;19724;51.114;13.906;2023-02-08T06:06:26;-5.50;99.90
33368;DHT22;19724;51.114;13.906;2023-02-08T06:08:52;-5.50;99.90
33368;DHT22;19724;51.114;13.906;2023-02-08T06:11:18;-5.40;99.90
33368;DHT22;19724;51.114;13.906;2023-02-08T06:13:44;-5.40;99.90
33368;DHT22;19724;51.114;13.906;2023-02-08T06:16:11;-5.40;99.90
33368;DHT22;19724;51.114;13.906;2023-02-08T06:18:36;-5.30;99.90
33368;DHT22;19724;51.114;13.906;2023-02-08T06:21:02;-5.20;99.90
33368;DHT22;19724;51.114;13.906;2023-02-08T06:23:28;-5.20;99.90
33368;DHT22;19724;51.114;13.906;2023-02-08T06:25:53;-5.20;99.90
33368;DHT22;19724;51.114;13.906;2023-02-08T06:28:19;-5.10;99.90
33368;DHT22;19724;51.114;13.906;2023-02-08T06:30:44;-5.20;99.90
33368;DHT22;19724;51.114;13.906;2023-02-08T06:33:10;-5.20;99.90
33368;DHT22;19724;51.114;13.906;2023-02-08T06:35:35;-5.00;99.90
33368;DHT22;19724;51.114;13.906;2023-02-08T06:38:01;-5.10;99.90
33368;DHT22;19724;51.114;13.906;2023-02-08T06:40:26;-5.10;99.90
33368;DHT22;19724;51.114;13.906;2023-02-08T06:42:52;-5.00;99.90
33368;DHT22;19724;51.114;13.906;2023-02-08T06:45:17;-5.00;99.90
33368;DHT22;19724;51.114;13.906;2023-02-08T06:47:43;-5.00;99.90
33368;DHT22;19724;51.114;13.906;2023-02-08T06:50:09;-5.00;99.90
33368;DHT22;19724;51.114;13.906;2023-02-08T06:52:35;-4.90;99.90
33368;DHT22;19724;51.114;13.906;2023-02-08T06:55:01;-4.80;99.90
33368;DHT22;19724;51.114;13.906;2023-02-08T06:57:26;-4.90;99.90
33368;DHT22;19724;51.114;13.906;2023-02-08T06:59:52;-4.80;99.90
33368;DHT22;19724;51.114;13.906;2023-02-08T07:02:19;-4.70;99.90
33368;DHT22;19724;51.114;13.906;2023-02-08T07:04:45;-4.70;99.90
33368;DHT22;19724;51.114;13.906;2023-02-08T07:07:11;-4.70;99.90
33368;DHT22;19724;51.114;13.906;2023-02-08T07:09:37;-4.60;99.90
33368;DHT22;19724;51.114;13.906;2023-02-08T07:12:04;-4.60;99.90
33368;DHT22;19724;51.114;13.906;2023-02-08T07:14:35;-4.60;99.90
33368;DHT22;19724;51.114;13.906;2023-02-08T07:17:04;-4.50;99.90
33368;DHT22;19724;51.114;13.906;2023-02-08T07:19:35;-4.50;99.90
33368;DHT22;19724;51.114;13.906;2023-02-08T07:22:00;-4.50;99.90
33368;DHT22;19724;51.114;13.906;2023-02-08T07:24:33;-4.50;99.90
33368;DHT22;19724;51.114;13.906;2023-02-08T07:27:00;-4.40;99.90
33368;DHT22;19724;51.114;13.906;2023-02-08T07:29:28;-4.40;99.90
33368;DHT22;19724;51.114;13.906;2023-02-08T07:31:53;-4.40;99.90
33368;DHT22;19724;51.114;13.906;2023-02-08T07:34:19;-4.20;99.90
33368;DHT22;19724;51.114;13.906;2023-02-08T07:36:46;-4.20;99.90
33368;DHT22;19724;51.114;13.906;2023-02-08T07:39:13;-4.10;99.90
33368;DHT22;19724;51.114;13.906;2023-02-08T07:41:38;-4.10;99.90
33368;DHT22;19724;51.114;13.906;2023-02-08T07:44:04;-4.00;99.90
33368;DHT22;19724;51.114;13.906;2023-02-08T07:46:29;-4.00;99.90
33368;DHT22;19724;51.114;13.906;2023-02-08T07:48:55;-3.70;99.90
33368;DHT22;19724;51.114;13.906;2023-02-08T07:51:20;-3.80;99.90
33368;DHT22;19724;51.114;13.906;2023-02-08T07:53:46;-3.70;99.90
33368;DHT22;19724;51.114;13.906;2023-02-08T07:56:11;-3.70;99.90
33368;DHT22;19724;51.114;13.906;2023-02-08T07:58:37;-3.60;99.90
33368;DHT22;19724;51.114;13.906;2023-02-08T08:01:03;-3.60;99.90
33368;DHT22;19724;51.114;13.906;2023-02-08T08:03:31;-3.40;99.90
33368;DHT22;19724;51.114;13.906;2023-02-08T08:05:57;-3.30;99.90
33368;DHT22;19724;51.114;13.906;2023-02-08T08:08:22;-3.30;99.90
33368;DHT22;19724;51.114;13.906;2023-02-08T08:10:48;-3.20;99.90
33368;DHT22;19724;51.114;13.906;2023-02-08T08:13:13;-3.20;99.90
33368;DHT22;19724;51.114;13.906;2023-02-08T08:15:39;-3.10;99.90
33368;DHT22;19724;51.114;13.906;2023-02-08T08:18:05;-3.00;99.90
33368;DHT22;19724;51.114;13.906;2023-02-08T08:20:30;-3.00;99.90
33368;DHT22;19724;51.114;13.906;2023-02-08T08:22:56;-2.80;99.90
33368;DHT22;19724;51.114;13.906;2023-02-08T08:25:21;-2.80;99.90
33368;DHT22;19724;51.114;13.906;2023-02-08T08:27:47;-2.70;99.90
33368;DHT22;19724;51.114;13.906;2023-02-08T08:30:14;-2.60;99.90
33368;DHT22;19724;51.114;13.906;2023-02-08T08:32:41;-2.50;99.90
33368;DHT22;19724;51.114;13.906;2023-02-08T08:35:06;-2.40;99.90
33368;DHT22;19724;51.114;13.906;2023-02-08T08:37:33;-2.20;99.90
33368;DHT22;19724;51.114;13.906;2023-02-08T08:39:58;-2.00;99.90
33368;DHT22;19724;51.114;13.906;2023-02-08T08:42:24;-1.80;99.90
33368;DHT22;19724;51.114;13.906;2023-02-08T08:44:51;-1.50;99.90
33368;DHT22;19724;51.114;13.906;2023-02-08T08:47:16;-1.30;99.90
33368;DHT22;19724;51.114;13.906;2023-02-08T08:49:42;-1.30;99.90
33368;DHT22;19724;51.114;13.906;2023-02-08T08:52:08;-1.10;99.90
33368;DHT22;19724;51.114;13.906;2023-02-08T08:54:34;-1.00;99.90
33368;DHT22;19724;51.114;13.906;2023-02-08T08:57:00;-0.80;99.90
33368;DHT22;19724;51.114;13.906;2023-02-08T08:59:25;-0.50;99.90
33368;DHT22;19724;51.114;13.906;2023-02-08T09:01:51;-0.40;99.90
33368;DHT22;19724;51.114;13.906;2023-02-08T09:04:17;-0.20;99.90
33368;DHT22;19724;51.114;13.906;2023-02-08T09:06:42;0.10;99.90
33368;DHT22;19724;51.114;13.906;2023-02-08T09:09:08;0.00;99.90
33368;DHT22;19724;51.114;13.906;2023-02-08T09:11:33;0.20;99.90
33368;DHT22;19724;51.114;13.906;2023-02-08T09:14:01;0.40;99.90
33368;DHT22;19724;51.114;13.906;2023-02-08T09:16:27;0.60;99.90
33368;DHT22;19724;51.114;13.906;2023-02-08T09:18:53;0.70;99.90
33368;DHT22;19724;51.114;13.906;2023-02-08T09:21:21;1.00;99.90
33368;DHT22;19724;51.114;13.906;2023-02-08T09:23:47;1.20;99.90
33368;DHT22;19724;51.114;13.906;2023-02-08T09:26:15;1.30;99.90
33368;DHT22;19724;51.114;13.906;2023-02-08T09:28:41;1.40;99.90
33368;DHT22;19724;51.114;13.906;2023-02-08T09:31:14;1.80;99.90
33368;DHT22;19724;51.114;13.906;2023-02-08T09:33:42;1.90;99.90
33368;DHT22;19724;51.114;13.906;2023-02-08T09:36:08;1.90;99.90
33368;DHT22;19724;51.114;13.906;2023-02-08T09:38:34;1.90;99.90
33368;DHT22;19724;51.114;13.906;2023-02-08T09:46:39;2.00;99.90
33368;DHT22;19724;51.114;13.906;2023-02-08T09:49:10;2.00;99.90
33368;DHT22;19724;51.114;13.906;2023-02-08T09:51:46;2.20;99.90
33368;DHT22;19724;51.114;13.906;2023-02-08T09:56:53;2.40;99.90
33368;DHT22;19724;51.114;13.906;2023-02-08T09:59:24;2.30;99.90
33368;DHT22;19724;51.114;13.906;2023-02-08T10:02:10;2.50;99.90
33368;DHT22;19724;51.114;13.906;2023-02-08T10:07:15;2.70;99.90
33368;DHT22;19724;51.114;13.906;2023-02-08T10:09:41;2.60;99.90
33368;DHT22;19724;51.114;13.906;2023-02-08T10:12:21;2.80;99.90
33368;DHT22;19724;51.114;13.906;2023-02-08T10:15:12;2.90;99.90
33368;DHT22;19724;51.114;13.906;2023-02-08T10:18:00;3.40;99.90
33368;DHT22;19724;51.114;13.906;2023-02-08T10:20:43;3.60;99.90
33368;DHT22;19724;51.114;13.906;2023-02-08T10:23:33;3.50;99.90
33368;DHT22;19724;51.114;13.906;2023-02-08T10:26:11;3.60;99.90
33368;DHT22;19724;51.114;13.906;2023-02-08T10:34:41;4.20;99.90
33368;DHT22;19724;51.114;13.906;2023-02-08T10:37:13;4.30;99.90
33368;DHT22;19724;51.114;13.906;2023-02-08T10:39:39;4.20;99.90
33368;DHT22;19724;51.114;13.906;2023-02-08T10:42:15;4.20;99.90
33368;DHT22;19724;51.114;13.906;2023-02-08T10:47:48;4.40;99.90
33368;DHT22;19724;51.114;13.906;2023-02-08T10:50:36;4.40;99.90
33368;DHT22;19724;51.114;13.906;2023-02-08T10:53:03;4.40;99.90
33368;DHT22;19724;51.114;13.906;2023-02-08T10:55:30;4.30;99.90
33368;DHT22;19724;51.114;13.906;2023-02-08T10:57:59;4.40;99.90
33368;DHT22;19724;51.114;13.906;2023-02-08T11:00:28;4.60;99.90
33368;DHT22;19724;51.114;13.906;2023-02-08T11:02:56;4.60;99.90
33368;DHT22;19724;51.114;13.906;2023-02-08T11:08:08;4.50;99.90
33368;DHT22;19724;51.114;13.906;2023-02-08T11:10:35;4.70;99.90
33368;DHT22;19724;51.114;13.906;2023-02-08T11:13:17;5.00;99.90
33368;DHT22;19724;51.114;13.906;2023-02-08T11:15:48;5.10;99.90
33368;DHT22;19724;51.114;13.906;2023-02-08T11:18:34;5.20;99.90
33368;DHT22;19724;51.114;13.906;2023-02-08T11:21:05;5.40;99.90
33368;DHT22;19724;51.114;13.906;2023-02-08T11:23:40;5.70;99.90
33368;DHT22;19724;51.114;13.906;2023-02-08T11:26:33;5.60;99.90
33368;DHT22;19724;51.114;13.906;2023-02-08T11:29:02;5.60;99.90
33368;DHT22;19724;51.114;13.906;2023-02-08T11:31:29;5.70;99.90
33368;DHT22;19724;51.114;13.906;2023-02-08T11:34:07;5.90;99.90
33368;DHT22;19724;51.114;13.906;2023-02-08T11:36:42;6.00;99.90
33368;DHT22;19724;51.114;13.906;2023-02-08T11:39:19;6.00;99.90
33368;DHT22;19724;51.114;13.906;2023-02-08T11:41:48;6.10;99.90
33368;DHT22;19724;51.114;13.906;2023-02-08T11:44:21;6.20;99.90
33368;DHT22;19724;51.114;13.906;2023-02-08T11:46:49;6.10;99.90
33368;DHT22;19724;51.114;13.906;2023-02-08T11:49:23;6.20;99.90
33368;DHT22;19724;51.114;13.906;2023-02-08T11:51:49;6.60;99.90
33368;DHT22;19724;51.114;13.906;2023-02-08T11:54:39;6.70;99.90
33368;DHT22;19724;51.114;13.906;2023-02-08T11:57:22;6.90;99.90
33368;DHT22;19724;51.114;13.906;2023-02-08T11:59:51;6.90;99.90
33368;DHT22;19724;51.114;13.906;2023-02-08T12:02:37;6.80;99.90
33368;DHT22;19724;51.114;13.906;2023-02-08T12:05:09;6.90;99.90
33368;DHT22;19724;51.114;13.906;2023-02-08T12:08:10;6.80;99.90
33368;DHT22;19724;51.114;13.906;2023-02-08T12:16:16;7.10;99.90
33368;DHT22;19724;51.114;13.906;2023-02-08T12:19:04;7.10;99.90
33368;DHT22;19724;51.114;13.906;2023-02-08T12:21:41;6.90;99.90
33368;DHT22;19724;51.114;13.906;2023-02-08T12:24:12;7.10;99.90
33368;DHT22;19724;51.114;13.906;2023-02-08T12:26:54;7.20;99.90
33368;DHT22;19724;51.114;13.906;2023-02-08T12:29:34;7.20;99.90
33368;DHT22;19724;51.114;13.906;2023-02-08T12:38:11;7.30;99.90
33368;DHT22;19724;51.114;13.906;2023-02-08T12:41:21;7.40;99.90
33368;DHT22;19724;51.114;13.906;2023-02-08T12:46:51;7.90;99.90
33368;DHT22;19724;51.114;13.906;2023-02-08T12:49:40;8.10;99.90
33368;DHT22;19724;51.114;13.906;2023-02-08T12:52:26;7.90;99.90
33368;DHT22;19724;51.114;13.906;2023-02-08T12:55:17;7.80;99.90
33368;DHT22;19724;51.114;13.906;2023-02-08T12:57:48;7.60;99.90
33368;DHT22;19724;51.114;13.906;2023-02-08T13:00:21;7.70;99.90
33368;DHT22;19724;51.114;13.906;2023-02-08T13:03:02;7.80;99.90
33368;DHT22;19724;51.114;13.906;2023-02-08T13:05:34;7.70;99.90
33368;DHT22;19724;51.114;13.906;2023-02-08T13:10:41;7.90;99.90
33368;DHT22;19724;51.114;13.906;2023-02-08T13:15:43;8.00;99.90
33368;DHT22;19724;51.114;13.906;2023-02-08T13:18:27;8.30;99.90
33368;DHT22;19724;51.114;13.906;2023-02-08T13:21:00;8.30;99.90
33368;DHT22;19724;51.114;13.906;2023-02-08T13:23:36;8.10;99.90
33368;DHT22;19724;51.114;13.906;2023-02-08T13:26:20;7.90;99.90
33368;DHT22;19724;51.114;13.906;2023-02-08T13:28:50;7.70;99.90
33368;DHT22;19724;51.114;13.906;2023-02-08T13:31:23;7.50;99.90
33368;DHT22;19724;51.114;13.906;2023-02-08T13:34:05;7.20;99.90
33368;DHT22;19724;51.114;13.906;2023-02-08T13:36:41;7.20;99.90
33368;DHT22;19724;51.114;13.906;2023-02-08T13:39:32;7.00;99.90
33368;DHT22;19724;51.114;13.906;2023-02-08T13:41:59;7.20;99.90
33368;DHT22;19724;51.114;13.906;2023-02-08T13:44:38;7.40;99.90
33368;DHT22;19724;51.114;13.906;2023-02-08T13:47:06;7.40;99.90
33368;DHT22;19724;51.114;13.906;2023-02-08T13:57:53;6.70;99.90
33368;DHT22;19724;51.114;13.906;2023-02-08T14:00:22;6.30;99.90
33368;DHT22;19724;51.114;13.906;2023-02-08T14:11:44;5.30;99.90
33368;DHT22;19724;51.114;13.906;2023-02-08T14:16:46;5.00;99.90
33368;DHT22;19724;51.114;13.906;2023-02-08T14:19:36;4.80;99.90
33368;DHT22;19724;51.114;13.906;2023-02-08T14:22:04;4.70;99.90
33368;DHT22;19724;51.114;13.906;2023-02-08T14:24:39;4.40;99.90
33368;DHT22;19724;51.114;13.906;2023-02-08T14:30:03;3.80;99.90
33368;DHT22;19724;51.114;13.906;2023-02-08T14:32:33;3.40;99.90
33368;DHT22;19724;51.114;13.906;2023-02-08T14:35:03;3.20;99.90
33368;DHT22;19724;51.114;13.906;2023-02-08T14:37:32;3.10;99.90
33368;DHT22;19724;51.114;13.906;2023-02-08T14:43:00;3.00;99.90
33368;DHT22;19724;51.114;13.906;2023-02-08T14:45:34;2.70;99.90
33368;DHT22;19724;51.114;13.906;2023-02-08T14:48:23;2.50;99.90
33368;DHT22;19724;51.114;13.906;2023-02-08T14:50:52;2.40;99.90
33368;DHT22;19724;51.114;13.906;2023-02-08T14:53:42;2.30;99.90
33368;DHT22;19724;51.114;13.906;2023-02-08T14:58:38;2.20;99.90
33368;DHT22;19724;51.114;13.906;2023-02-08T15:01:21;2.20;99.90
33368;DHT22;19724;51.114;13.906;2023-02-08T15:03:54;2.00;99.90
33368;DHT22;19724;51.114;13.906;2023-02-08T15:09:30;1.90;99.90
33368;DHT22;19724;51.114;13.906;2023-02-08T15:14:33;1.80;99.90
33368;DHT22;19724;51.114;13.906;2023-02-08T15:16:59;1.80;99.90
33368;DHT22;19724;51.114;13.906;2023-02-08T15:19:32;1.70;99.90
33368;DHT22;19724;51.114;13.906;2023-02-08T15:22:15;1.60;99.90
33368;DHT22;19724;51.114;13.906;2023-02-08T15:24:55;1.70;99.90
33368;DHT22;19724;51.114;13.906;2023-02-08T15:27:27;1.60;99.90
33368;DHT22;19724;51.114;13.906;2023-02-08T15:29:53;1.50;99.90
33368;DHT22;19724;51.114;13.906;2023-02-08T15:32:24;1.40;99.90
33368;DHT22;19724;51.114;13.906;2023-02-08T15:34:56;1.30;99.90
33368;DHT22;19724;51.114;13.906;2023-02-08T15:37:22;1.20;99.90
33368;DHT22;19724;51.114;13.906;2023-02-08T15:39:52;1.30;99.90
33368;DHT22;19724;51.114;13.906;2023-02-08T15:42:21;1.20;99.90
33368;DHT22;19724;51.114;13.906;2023-02-08T15:44:47;1.30;99.90
33368;DHT22;19724;51.114;13.906;2023-02-08T15:47:21;1.10;99.90
33368;DHT22;19724;51.114;13.906;2023-02-08T15:49:49;1.20;99.90
33368;DHT22;19724;51.114;13.906;2023-02-08T15:52:20;1.10;99.90
33368;DHT22;19724;51.114;13.906;2023-02-08T15:54:46;1.10;99.90
33368;DHT22;19724;51.114;13.906;2023-02-08T15:59:44;1.10;99.90
33368;DHT22;19724;51.114;13.906;2023-02-08T16:02:20;1.00;99.90
33368;DHT22;19724;51.114;13.906;2023-02-08T16:04:46;0.90;99.90
33368;DHT22;19724;51.114;13.906;2023-02-08T16:07:35;0.90;99.90
33368;DHT22;19724;51.114;13.906;2023-02-08T16:10:02;0.90;99.90
33368;DHT22;19724;51.114;13.906;2023-02-08T16:12:28;0.90;99.90
33368;DHT22;19724;51.114;13.906;2023-02-08T16:14:54;0.80;99.90
33368;DHT22;19724;51.114;13.906;2023-02-08T16:17:42;0.80;99.90
33368;DHT22;19724;51.114;13.906;2023-02-08T16:20:29;0.70;99.90
33368;DHT22;19724;51.114;13.906;2023-02-08T16:23:21;0.60;99.90
33368;DHT22;19724;51.114;13.906;2023-02-08T16:25:47;0.60;99.90
33368;DHT22;19724;51.114;13.906;2023-02-08T16:28:29;0.50;99.90
33368;DHT22;19724;51.114;13.906;2023-02-08T16:30:58;0.50;99.90
33368;DHT22;19724;51.114;13.906;2023-02-08T16:33:24;0.50;99.90
33368;DHT22;19724;51.114;13.906;2023-02-08T16:35:50;0.40;99.90
33368;DHT22;19724;51.114;13.906;2023-02-08T16:38:19;0.40;99.90
33368;DHT22;19724;51.114;13.906;2023-02-08T16:40:50;0.40;99.90
33368;DHT22;19724;51.114;13.906;2023-02-08T16:43:30;0.40;99.90
33368;DHT22;19724;51.114;13.906;2023-02-08T16:48:41;0.30;99.90
33368;DHT22;19724;51.114;13.906;2023-02-08T16:51:26;0.30;99.90
33368;DHT22;19724;51.114;13.906;2023-02-08T16:53:55;0.20;99.90
33368;DHT22;19724;51.114;13.906;2023-02-08T16:56:21;0.30;99.90
33368;DHT22;19724;51.114;13.906;2023-02-08T16:58:47;0.20;99.90
33368;DHT22;19724;51.114;13.906;2023-02-08T17:01:13;0.00;99.90
33368;DHT22;19724;51.114;13.906;2023-02-08T17:03:40;0.00;99.90
33368;DHT22;19724;51.114;13.906;2023-02-08T17:06:05;-0.10;99.90
33368;DHT22;19724;51.114;13.906;2023-02-08T17:08:31;-0.20;99.90
33368;DHT22;19724;51.114;13.906;2023-02-08T17:11:00;-0.20;99.90
33368;DHT22;19724;51.114;13.906;2023-02-08T17:13:26;-0.20;99.90
33368;DHT22;19724;51.114;13.906;2023-02-08T17:15:52;-0.30;99.90
33368;DHT22;19724;51.114;13.906;2023-02-08T17:18:17;-0.30;99.90
33368;DHT22;19724;51.114;13.906;2023-02-08T17:20:44;-0.40;99.90
33368;DHT22;19724;51.114;13.906;2023-02-08T17:23:10;-0.40;99.90
33368;DHT22;19724;51.114;13.906;2023-02-08T17:25:36;-0.40;99.90
33368;DHT22;19724;51.114;13.906;2023-02-08T17:28:04;-0.50;99.90
33368;DHT22;19724;51.114;13.906;2023-02-08T17:30:34;-0.50;99.90
33368;DHT22;19724;51.114;13.906;2023-02-08T17:33:00;-0.50;99.90